Sun Universe — 3FOQ4 — position and weather

sailwx.info

Track history (hours):
 
Tides and Currents Weather Stations Pressure Air Temp Water Temp Dewpoint Dewpoint Depression Visibility Wind Speed Wind Dir Waves Ship Positions

Sun Universe

Last reported at 2018-Apr-19 05:08 UTC. Time now 2018-Apr-19 13:11 UTC.
Position N 33°11' E 132°03'.

Length 117 m; draft 9.2 m.

Type: Cargo ship. MMSI: 371647000.

Date/timePositionNaut miles runAvg speedWind from/ knotsBaromVisibWave heightAir tempDewpointWater temp
2018-Apr-19 05:08N 33°11' E 132°03'214.7
2018-Apr-19 04:59N 33°13' E 132°02'815.3
2018-Apr-19 04:27N 33°20' E 131°58'612.4
2018-Apr-19 03:56N 33°27' E 132°00'713.5
2018-Apr-19 03:25N 33°32' E 132°06'512.8
2018-Apr-19 02:59N 33°35' E 132°11'912.3
2018-Apr-19 02:13N 33°41' E 132°20'311.9
2018-Apr-19 02:00N 33°43' E 132°22'711.8
2018-Apr-19 01:23N 33°48' E 132°29'411.9
2018-Apr-19 01:00N 33°51' E 132°33'611.3
2018-Apr-19 00:29N 33°55' E 132°38'510.4
2018-Apr-19 00:00N 33°58' E 132°43'  
2018-Apr-14 03:39N 34°24' E 133°55'411.9
2018-Apr-14 03:19N 34°25' E 133°60'411.1
2018-Apr-14 03:00N 34°27' E 134°04'811.9
2018-Apr-14 02:18N 34°25' E 134°13'412.8
2018-Apr-14 02:00N 34°24' E 134°18'612.9
2018-Apr-14 01:30N 34°26' E 134°25'713.3
2018-Apr-14 01:00N 34°29' E 134°33'713.8
2018-Apr-14 00:30N 34°31' E 134°41'714.7
2018-Apr-14 00:00N 34°34' E 134°49'814.8
2018-Apr-13 23:29N 34°37' E 134°57'613.0
2018-Apr-13 23:00N 34°35' E 135°05'511.0
2018-Apr-13 22:31N 34°30' E 135°06'5 9.2
2018-Apr-13 22:01N 34°26' E 135°04'4 7.7
2018-Apr-13 21:30N 34°22' E 135°02'4 7.9
2018-Apr-13 21:01N 34°19' E 134°60'510.2
2018-Apr-13 20:30N 34°14' E 134°59'4 7.3
2018-Apr-13 20:00N 34°10' E 134°59'4 7.3
2018-Apr-13 19:31N 34°06' E 134°59'611.2
2018-Apr-13 19:01N 34°01' E 134°59'611.6
2018-Apr-13 18:29N 33°54' E 134°59'511.0
2018-Apr-13 18:00N 33°49' E 134°59'1011.0
2018-Apr-13 17:06N 33°40' E 135°03'15 1.0
2018-Apr-13 01:45N 33°25' E 135°01'7 0.6
2018-Apr-12 13:48N 33°19' E 134°57'1 0.8
2018-Apr-12 12:36N 33°18' E 134°56'0 0.7
2018-Apr-12 12:30N 33°18' E 134°56'2 3.7
2018-Apr-12 11:53N 33°16' E 134°58'513.4
2018-Apr-12 11:30N 33°13' E 135°03'13 1.0
2018-Apr-11 22:11N 33°22' E 135°14'0 0.1
2018-Apr-11 19:04N 33°22' E 135°14'7 0.3
2018-Apr-10 22:52N 33°27' E 135°08'6 2.0
2018-Apr-10 20:02N 33°25' E 135°01'0 2.2
2018-Apr-10 19:59N 33°25' E 135°01'3 0.3
2018-Apr-10 07:05N 33°27' E 134°58'122 5.9
2018-Apr-09 10:29N 34°32' E 137°02'612.3
2018-Apr-09 10:00N 34°36' E 136°57'612.0
2018-Apr-09 09:30N 34°39' E 136°51'713.4
2018-Apr-09 09:00N 34°45' E 136°47'611.6
2018-Apr-09 08:30N 34°51' E 136°45'611.6
2018-Apr-09 08:00N 34°56' E 136°43'3 6.0
2018-Apr-09 07:26N 34°57' E 136°39'0 0.0
2018-Apr-09 06:59N 34°57' E 136°39'0 0.0
2018-Apr-09 06:26N 34°57' E 136°39'0 0.0
2018-Apr-09 05:56N 34°57' E 136°39'0 0.0
2018-Apr-09 05:29N 34°57' E 136°39'  
Track history (hours):
 
Tides and Currents Weather Stations Pressure Air Temp Water Temp Dewpoint Dewpoint Depression Visibility Wind Speed Wind Dir Waves Ship Positions

Sun Universe

Last reported at 2018-Apr-19 05:08 UTC. Time now 2018-Apr-19 13:11 UTC.
Position N 33°11' E 132°03'.

Length 117 m; draft 9.2 m.

Type: Cargo ship. MMSI: 371647000.

Date/timePositionNaut miles runAvg speedWind from/ knotsBaromVisibWave heightAir tempDewpointWater temp
2018-Apr-19 05:08N 33°11' E 132°03'214.7
2018-Apr-19 04:59N 33°13' E 132°02'815.3
2018-Apr-19 04:27N 33°20' E 131°58'612.4
2018-Apr-19 03:56N 33°27' E 132°00'713.5
2018-Apr-19 03:25N 33°32' E 132°06'512.8
2018-Apr-19 02:59N 33°35' E 132°11'912.3
2018-Apr-19 02:13N 33°41' E 132°20'311.9
2018-Apr-19 02:00N 33°43' E 132°22'711.8
2018-Apr-19 01:23N 33°48' E 132°29'411.9
2018-Apr-19 01:00N 33°51' E 132°33'611.3
2018-Apr-19 00:29N 33°55' E 132°38'510.4
2018-Apr-19 00:00N 33°58' E 132°43'  
2018-Apr-14 03:39N 34°24' E 133°55'411.9
2018-Apr-14 03:19N 34°25' E 133°60'411.1
2018-Apr-14 03:00N 34°27' E 134°04'811.9
2018-Apr-14 02:18N 34°25' E 134°13'412.8
2018-Apr-14 02:00N 34°24' E 134°18'612.9
2018-Apr-14 01:30N 34°26' E 134°25'713.3
2018-Apr-14 01:00N 34°29' E 134°33'713.8
2018-Apr-14 00:30N 34°31' E 134°41'714.7
2018-Apr-14 00:00N 34°34' E 134°49'814.8
2018-Apr-13 23:29N 34°37' E 134°57'613.0
2018-Apr-13 23:00N 34°35' E 135°05'511.0
2018-Apr-13 22:31N 34°30' E 135°06'5 9.2
2018-Apr-13 22:01N 34°26' E 135°04'4 7.7
2018-Apr-13 21:30N 34°22' E 135°02'4 7.9
2018-Apr-13 21:01N 34°19' E 134°60'510.2
2018-Apr-13 20:30N 34°14' E 134°59'4 7.3
2018-Apr-13 20:00N 34°10' E 134°59'4 7.3
2018-Apr-13 19:31N 34°06' E 134°59'611.2
2018-Apr-13 19:01N 34°01' E 134°59'611.6
2018-Apr-13 18:29N 33°54' E 134°59'511.0
2018-Apr-13 18:00N 33°49' E 134°59'1011.0
2018-Apr-13 17:06N 33°40' E 135°03'15 1.0
2018-Apr-13 01:45N 33°25' E 135°01'7 0.6
2018-Apr-12 13:48N 33°19' E 134°57'1 0.8
2018-Apr-12 12:36N 33°18' E 134°56'0 0.7
2018-Apr-12 12:30N 33°18' E 134°56'2 3.7
2018-Apr-12 11:53N 33°16' E 134°58'513.4
2018-Apr-12 11:30N 33°13' E 135°03'13 1.0
2018-Apr-11 22:11N 33°22' E 135°14'0 0.1
2018-Apr-11 19:04N 33°22' E 135°14'7 0.3
2018-Apr-10 22:52N 33°27' E 135°08'6 2.0
2018-Apr-10 20:02N 33°25' E 135°01'0 2.2
2018-Apr-10 19:59N 33°25' E 135°01'3 0.3
2018-Apr-10 07:05N 33°27' E 134°58'122 5.9
2018-Apr-09 10:29N 34°32' E 137°02'612.3
2018-Apr-09 10:00N 34°36' E 136°57'612.0
2018-Apr-09 09:30N 34°39' E 136°51'713.4
2018-Apr-09 09:00N 34°45' E 136°47'611.6
2018-Apr-09 08:30N 34°51' E 136°45'611.6
2018-Apr-09 08:00N 34°56' E 136°43'3 6.0
2018-Apr-09 07:26N 34°57' E 136°39'0 0.0
2018-Apr-09 06:59N 34°57' E 136°39'0 0.0
2018-Apr-09 06:26N 34°57' E 136°39'0 0.0
2018-Apr-09 05:56N 34°57' E 136°39'0 0.0
2018-Apr-09 05:29N 34°57' E 136°39'  

Dump ship's entire track history